sensor_id;sensor_type;location;lat;lon;timestamp;temperature;humidity
76168;DHT22;64927;48.214;16.378;2024-03-23T00:52:48;15.70;51.40
76168;DHT22;64927;48.214;16.378;2024-03-23T00:55:14;15.60;51.80
76168;DHT22;64927;48.214;16.378;2024-03-23T00:57:42;15.60;51.80
76168;DHT22;64927;48.214;16.378;2024-03-23T01:00:07;15.60;52.00
76168;DHT22;64927;48.214;16.378;2024-03-23T01:02:36;15.70;51.90
76168;DHT22;64927;48.214;16.378;2024-03-23T01:05:01;15.60;52.10
76168;DHT22;64927;48.214;16.378;2024-03-23T01:07:29;15.50;52.60
76168;DHT22;64927;48.214;16.378;2024-03-23T01:09:57;15.40;52.70
76168;DHT22;64927;48.214;16.378;2024-03-23T01:12:23;15.20;53.20
76168;DHT22;64927;48.214;16.378;2024-03-23T01:14:50;15.00;53.80
76168;DHT22;64927;48.214;16.378;2024-03-23T01:17:16;15.00;54.00
76168;DHT22;64927;48.214;16.378;2024-03-23T01:19:44;15.00;53.60
76168;DHT22;64927;48.214;16.378;2024-03-23T01:22:12;15.20;53.50
76168;DHT22;64927;48.214;16.378;2024-03-23T01:24:37;15.10;53.50
76168;DHT22;64927;48.214;16.378;2024-03-23T01:27:03;15.10;53.60
76168;DHT22;64927;48.214;16.378;2024-03-23T01:29:31;15.10;53.30
76168;DHT22;64927;48.214;16.378;2024-03-23T01:32:00;15.10;53.70
76168;DHT22;64927;48.214;16.378;2024-03-23T01:34:30;15.10;53.70
76168;DHT22;64927;48.214;16.378;2024-03-23T01:36:56;15.00;54.00
76168;DHT22;64927;48.214;16.378;2024-03-23T01:39:23;15.10;53.60
76168;DHT22;64927;48.214;16.378;2024-03-23T01:41:51;15.10;53.90
76168;DHT22;64927;48.214;16.378;2024-03-23T01:44:18;15.10;54.20
76168;DHT22;64927;48.214;16.378;2024-03-23T01:46:44;15.10;53.80
76168;DHT22;64927;48.214;16.378;2024-03-23T01:49:10;15.20;53.50
76168;DHT22;64927;48.214;16.378;2024-03-23T01:51:38;15.30;53.20
76168;DHT22;64927;48.214;16.378;2024-03-23T01:54:08;15.30;53.00
76168;DHT22;64927;48.214;16.378;2024-03-23T01:56:34;15.30;53.40
76168;DHT22;64927;48.214;16.378;2024-03-23T01:59:06;15.30;53.30
76168;DHT22;64927;48.214;16.378;2024-03-23T02:01:33;15.30;53.00
76168;DHT22;64927;48.214;16.378;2024-03-23T02:04:01;15.40;53.00
76168;DHT22;64927;48.214;16.378;2024-03-23T02:06:27;15.40;52.90
76168;DHT22;64927;48.214;16.378;2024-03-23T02:08:53;15.40;52.70
76168;DHT22;64927;48.214;16.378;2024-03-23T02:11:19;15.40;52.70
76168;DHT22;64927;48.214;16.378;2024-03-23T02:13:50;15.30;53.20
76168;DHT22;64927;48.214;16.378;2024-03-23T02:16:16;15.20;53.80
76168;DHT22;64927;48.214;16.378;2024-03-23T02:18:41;15.10;54.40
76168;DHT22;64927;48.214;16.378;2024-03-23T02:21:07;15.00;54.50
76168;DHT22;64927;48.214;16.378;2024-03-23T02:23:32;15.00;54.30
76168;DHT22;64927;48.214;16.378;2024-03-23T02:25:58;15.00;54.40
76168;DHT22;64927;48.214;16.378;2024-03-23T02:28:23;14.90;54.90
76168;DHT22;64927;48.214;16.378;2024-03-23T02:30:50;14.90;54.70
76168;DHT22;64927;48.214;16.378;2024-03-23T02:33:20;15.00;55.60
76168;DHT22;64927;48.214;16.378;2024-03-23T02:35:55;14.90;54.70
76168;DHT22;64927;48.214;16.378;2024-03-23T02:38:24;15.00;54.70
76168;DHT22;64927;48.214;16.378;2024-03-23T02:40:50;15.00;54.70
76168;DHT22;64927;48.214;16.378;2024-03-23T02:43:15;15.00;54.30
76168;DHT22;64927;48.214;16.378;2024-03-23T02:45:41;15.00;54.40
76168;DHT22;64927;48.214;16.378;2024-03-23T02:48:09;15.00;54.40
76168;DHT22;64927;48.214;16.378;2024-03-23T02:50:35;15.10;54.50
76168;DHT22;64927;48.214;16.378;2024-03-23T02:53:01;15.00;54.50
76168;DHT22;64927;48.214;16.378;2024-03-23T02:55:27;15.00;54.80
76168;DHT22;64927;48.214;16.378;2024-03-23T02:57:53;14.90;54.90
76168;DHT22;64927;48.214;16.378;2024-03-23T03:00:18;14.90;55.00
76168;DHT22;64927;48.214;16.378;2024-03-23T03:02:44;14.90;54.90
76168;DHT22;64927;48.214;16.378;2024-03-23T03:05:10;14.90;54.90
76168;DHT22;64927;48.214;16.378;2024-03-23T03:07:36;15.00;54.70
76168;DHT22;64927;48.214;16.378;2024-03-23T03:10:04;15.00;54.60
76168;DHT22;64927;48.214;16.378;2024-03-23T03:12:31;15.10;54.60
76168;DHT22;64927;48.214;16.378;2024-03-23T03:14:57;15.10;54.30
76168;DHT22;64927;48.214;16.378;2024-03-23T03:17:23;15.10;54.40
76168;DHT22;64927;48.214;16.378;2024-03-23T03:19:48;15.10;54.40
76168;DHT22;64927;48.214;16.378;2024-03-23T03:22:14;15.10;54.40
76168;DHT22;64927;48.214;16.378;2024-03-23T03:24:40;15.10;54.30
76168;DHT22;64927;48.214;16.378;2024-03-23T03:27:05;15.10;54.30
76168;DHT22;64927;48.214;16.378;2024-03-23T03:29:32;15.20;54.10
76168;DHT22;64927;48.214;16.378;2024-03-23T03:32:02;15.10;54.10
76168;DHT22;64927;48.214;16.378;2024-03-23T03:34:27;15.20;54.10
76168;DHT22;64927;48.214;16.378;2024-03-23T03:36:54;15.20;54.10
76168;DHT22;64927;48.214;16.378;2024-03-23T03:39:20;15.20;54.00
76168;DHT22;64927;48.214;16.378;2024-03-23T03:41:48;15.20;54.10
76168;DHT22;64927;48.214;16.378;2024-03-23T03:44:14;15.10;54.40
76168;DHT22;64927;48.214;16.378;2024-03-23T03:46:39;15.10;54.60
76168;DHT22;64927;48.214;16.378;2024-03-23T03:49:05;15.10;54.70
76168;DHT22;64927;48.214;16.378;2024-03-23T03:51:33;15.20;54.50
76168;DHT22;64927;48.214;16.378;2024-03-23T03:53:58;15.20;54.50
76168;DHT22;64927;48.214;16.378;2024-03-23T03:56:24;15.20;54.30
76168;DHT22;64927;48.214;16.378;2024-03-23T03:58:49;15.10;54.60
76168;DHT22;64927;48.214;16.378;2024-03-23T04:01:15;15.10;54.80
76168;DHT22;64927;48.214;16.378;2024-03-23T04:03:43;15.00;54.70
76168;DHT22;64927;48.214;16.378;2024-03-23T04:06:09;15.00;54.80
76168;DHT22;64927;48.214;16.378;2024-03-23T04:08:35;15.00;54.70
76168;DHT22;64927;48.214;16.378;2024-03-23T04:11:01;15.10;54.70
76168;DHT22;64927;48.214;16.378;2024-03-23T04:13:27;15.10;54.70
76168;DHT22;64927;48.214;16.378;2024-03-23T04:15:56;15.00;54.90
76168;DHT22;64927;48.214;16.378;2024-03-23T04:18:22;15.00;54.90
76168;DHT22;64927;48.214;16.378;2024-03-23T04:20:48;15.00;54.90
76168;DHT22;64927;48.214;16.378;2024-03-23T04:23:14;15.00;54.80
76168;DHT22;64927;48.214;16.378;2024-03-23T04:25:42;15.10;55.80
76168;DHT22;64927;48.214;16.378;2024-03-23T04:28:10;15.00;54.90
76168;DHT22;64927;48.214;16.378;2024-03-23T04:30:36;15.10;55.00
76168;DHT22;64927;48.214;16.378;2024-03-23T04:33:02;15.10;54.90
76168;DHT22;64927;48.214;16.378;2024-03-23T04:35:28;15.10;54.80
76168;DHT22;64927;48.214;16.378;2024-03-23T04:37:54;15.10;55.00
76168;DHT22;64927;48.214;16.378;2024-03-23T04:40:21;15.10;54.80
76168;DHT22;64927;48.214;16.378;2024-03-23T04:42:46;15.20;54.90
76168;DHT22;64927;48.214;16.378;2024-03-23T04:45:12;15.20;54.90
76168;DHT22;64927;48.214;16.378;2024-03-23T04:47:38;15.20;54.80
76168;DHT22;64927;48.214;16.378;2024-03-23T04:50:04;15.20;54.60
76168;DHT22;64927;48.214;16.378;2024-03-23T04:52:33;15.20;54.70
76168;DHT22;64927;48.214;16.378;2024-03-23T04:54:58;15.20;54.70
76168;DHT22;64927;48.214;16.378;2024-03-23T04:57:24;15.20;54.60
76168;DHT22;64927;48.214;16.378;2024-03-23T04:59:52;15.30;54.70
76168;DHT22;64927;48.214;16.378;2024-03-23T05:02:20;15.30;54.60
76168;DHT22;64927;48.214;16.378;2024-03-23T05:04:45;15.30;54.40
76168;DHT22;64927;48.214;16.378;2024-03-23T05:07:11;15.30;54.40
76168;DHT22;64927;48.214;16.378;2024-03-23T05:09:37;15.30;54.30
76168;DHT22;64927;48.214;16.378;2024-03-23T05:12:02;15.40;54.40
76168;DHT22;64927;48.214;16.378;2024-03-23T05:14:28;15.40;54.40
76168;DHT22;64927;48.214;16.378;2024-03-23T05:16:54;15.40;54.20
76168;DHT22;64927;48.214;16.378;2024-03-23T05:19:21;15.30;54.50
76168;DHT22;64927;48.214;16.378;2024-03-23T05:21:46;15.30;54.60
76168;DHT22;64927;48.214;16.378;2024-03-23T05:24:12;15.30;54.50
76168;DHT22;64927;48.214;16.378;2024-03-23T05:26:38;15.30;54.50
76168;DHT22;64927;48.214;16.378;2024-03-23T05:29:06;15.30;54.50
76168;DHT22;64927;48.214;16.378;2024-03-23T05:31:36;15.30;54.70
76168;DHT22;64927;48.214;16.378;2024-03-23T05:34:04;15.30;54.50
76168;DHT22;64927;48.214;16.378;2024-03-23T05:36:29;15.40;54.40
76168;DHT22;64927;48.214;16.378;2024-03-23T05:38:55;15.50;54.30
76168;DHT22;64927;48.214;16.378;2024-03-23T05:41:20;15.50;54.10
76168;DHT22;64927;48.214;16.378;2024-03-23T05:43:47;15.40;54.20
76168;DHT22;64927;48.214;16.378;2024-03-23T05:46:16;15.30;54.50
76168;DHT22;64927;48.214;16.378;2024-03-23T05:48:43;15.40;54.20
76168;DHT22;64927;48.214;16.378;2024-03-23T05:51:09;15.50;54.10
76168;DHT22;64927;48.214;16.378;2024-03-23T05:53:35;15.60;53.80
76168;DHT22;64927;48.214;16.378;2024-03-23T05:56:04;15.60;53.70
76168;DHT22;64927;48.214;16.378;2024-03-23T05:58:30;15.60;53.70
76168;DHT22;64927;48.214;16.378;2024-03-23T06:01:02;15.70;53.60
76168;DHT22;64927;48.214;16.378;2024-03-23T06:03:28;15.70;53.50
76168;DHT22;64927;48.214;16.378;2024-03-23T06:05:54;15.60;53.60
76168;DHT22;64927;48.214;16.378;2024-03-23T06:08:21;15.60;53.60
76168;DHT22;64927;48.214;16.378;2024-03-23T06:10:47;15.60;53.50
76168;DHT22;64927;48.214;16.378;2024-03-23T06:13:15;15.70;53.50
76168;DHT22;64927;48.214;16.378;2024-03-23T06:15:44;15.80;53.40
76168;DHT22;64927;48.214;16.378;2024-03-23T06:18:11;15.90;53.20
76168;DHT22;64927;48.214;16.378;2024-03-23T06:20:40;15.90;52.90
76168;DHT22;64927;48.214;16.378;2024-03-23T06:23:05;16.00;52.60
76168;DHT22;64927;48.214;16.378;2024-03-23T06:25:31;16.00;52.20
76168;DHT22;64927;48.214;16.378;2024-03-23T06:27:57;16.00;52.50
76168;DHT22;64927;48.214;16.378;2024-03-23T06:30:23;16.10;52.00
76168;DHT22;64927;48.214;16.378;2024-03-23T06:32:49;16.10;51.90
76168;DHT22;64927;48.214;16.378;2024-03-23T06:35:15;16.00;51.70
76168;DHT22;64927;48.214;16.378;2024-03-23T06:37:43;16.10;52.00
76168;DHT22;64927;48.214;16.378;2024-03-23T06:40:08;16.10;51.50
76168;DHT22;64927;48.214;16.378;2024-03-23T06:42:35;16.00;51.60
76168;DHT22;64927;48.214;16.378;2024-03-23T06:45:03;16.00;51.70
76168;DHT22;64927;48.214;16.378;2024-03-23T06:47:32;16.00;51.70
76168;DHT22;64927;48.214;16.378;2024-03-23T06:49:59;16.10;51.80
76168;DHT22;64927;48.214;16.378;2024-03-23T06:52:27;16.10;51.40
76168;DHT22;64927;48.214;16.378;2024-03-23T06:54:56;16.20;51.20
76168;DHT22;64927;48.214;16.378;2024-03-23T06:57:22;16.20;51.10
76168;DHT22;64927;48.214;16.378;2024-03-23T06:59:52;16.20;51.10
76168;DHT22;64927;48.214;16.378;2024-03-23T07:02:20;16.10;51.00
76168;DHT22;64927;48.214;16.378;2024-03-23T07:04:46;16.10;51.00
76168;DHT22;64927;48.214;16.378;2024-03-23T07:07:11;16.30;50.70
76168;DHT22;64927;48.214;16.378;2024-03-23T07:09:39;16.30;50.50
76168;DHT22;64927;48.214;16.378;2024-03-23T07:12:05;16.40;50.50
76168;DHT22;64927;48.214;16.378;2024-03-23T07:14:31;16.50;50.00
76168;DHT22;64927;48.214;16.378;2024-03-23T07:16:57;16.60;49.90
76168;DHT22;64927;48.214;16.378;2024-03-23T07:19:22;16.60;49.80
76168;DHT22;64927;48.214;16.378;2024-03-23T07:21:49;16.70;49.50
76168;DHT22;64927;48.214;16.378;2024-03-23T07:24:15;16.80;49.80
76168;DHT22;64927;48.214;16.378;2024-03-23T07:26:41;16.90;49.30
76168;DHT22;64927;48.214;16.378;2024-03-23T07:29:09;17.00;49.10
76168;DHT22;64927;48.214;16.378;2024-03-23T07:31:37;17.10;48.70
76168;DHT22;64927;48.214;16.378;2024-03-23T07:34:06;17.10;48.50
76168;DHT22;64927;48.214;16.378;2024-03-23T07:36:32;17.20;48.50
76168;DHT22;64927;48.214;16.378;2024-03-23T07:38:57;17.20;48.40
76168;DHT22;64927;48.214;16.378;2024-03-23T07:41:23;17.10;48.40
76168;DHT22;64927;48.214;16.378;2024-03-23T07:43:49;17.10;48.00
76168;DHT22;64927;48.214;16.378;2024-03-23T07:46:15;17.10;48.70
76168;DHT22;64927;48.214;16.378;2024-03-23T07:48:41;17.10;48.20
76168;DHT22;64927;48.214;16.378;2024-03-23T07:51:26;17.10;47.70
76168;DHT22;64927;48.214;16.378;2024-03-23T07:53:51;17.10;48.30
76168;DHT22;64927;48.214;16.378;2024-03-23T07:56:18;17.10;48.40
76168;DHT22;64927;48.214;16.378;2024-03-23T07:58:44;17.10;48.40
76168;DHT22;64927;48.214;16.378;2024-03-23T08:01:15;17.30;49.30
76168;DHT22;64927;48.214;16.378;2024-03-23T08:03:44;17.30;48.80
76168;DHT22;64927;48.214;16.378;2024-03-23T08:06:11;17.30;48.90
76168;DHT22;64927;48.214;16.378;2024-03-23T08:08:38;17.50;48.40
76168;DHT22;64927;48.214;16.378;2024-03-23T08:11:04;17.60;48.40
76168;DHT22;64927;48.214;16.378;2024-03-23T08:13:30;17.50;48.10
76168;DHT22;64927;48.214;16.378;2024-03-23T08:16:00;17.40;48.40
76168;DHT22;64927;48.214;16.378;2024-03-23T08:18:26;17.40;49.00
76168;DHT22;64927;48.214;16.378;2024-03-23T08:21:05;17.50;48.60
76168;DHT22;64927;48.214;16.378;2024-03-23T08:23:35;17.60;48.00
76168;DHT22;64927;48.214;16.378;2024-03-23T08:26:12;17.60;47.70
76168;DHT22;64927;48.214;16.378;2024-03-23T08:28:38;17.80;47.20
76168;DHT22;64927;48.214;16.378;2024-03-23T08:31:08;17.80;47.10
76168;DHT22;64927;48.214;16.378;2024-03-23T08:33:34;17.90;47.30
76168;DHT22;64927;48.214;16.378;2024-03-23T08:36:07;18.40;46.30
76168;DHT22;64927;48.214;16.378;2024-03-23T08:38:33;18.60;45.70
76168;DHT22;64927;48.214;16.378;2024-03-23T08:41:05;18.80;45.00
76168;DHT22;64927;48.214;16.378;2024-03-23T08:43:36;18.80;44.60
76168;DHT22;64927;48.214;16.378;2024-03-23T08:48:44;19.00;43.70
76168;DHT22;64927;48.214;16.378;2024-03-23T08:51:12;19.00;43.20
76168;DHT22;64927;48.214;16.378;2024-03-23T08:53:38;18.90;43.40
76168;DHT22;64927;48.214;16.378;2024-03-23T08:56:05;18.90;43.50
76168;DHT22;64927;48.214;16.378;2024-03-23T08:58:32;19.00;43.40
76168;DHT22;64927;48.214;16.378;2024-03-23T09:01:11;19.30;42.60
76168;DHT22;64927;48.214;16.378;2024-03-23T09:03:38;19.40;41.70
76168;DHT22;64927;48.214;16.378;2024-03-23T09:06:12;19.60;41.60
76168;DHT22;64927;48.214;16.378;2024-03-23T09:08:38;19.80;40.50
76168;DHT22;64927;48.214;16.378;2024-03-23T09:11:09;19.90;40.10
76168;DHT22;64927;48.214;16.378;2024-03-23T09:13:36;20.00;39.40
76168;DHT22;64927;48.214;16.378;2024-03-23T09:16:02;20.00;39.70
76168;DHT22;64927;48.214;16.378;2024-03-23T09:18:28;20.20;39.00
76168;DHT22;64927;48.214;16.378;2024-03-23T09:20:53;20.20;39.10
76168;DHT22;64927;48.214;16.378;2024-03-23T09:23:21;20.30;39.30
76168;DHT22;64927;48.214;16.378;2024-03-23T09:25:47;20.50;39.10
76168;DHT22;64927;48.214;16.378;2024-03-23T09:28:12;20.60;39.10
76168;DHT22;64927;48.214;16.378;2024-03-23T09:30:38;20.80;37.90
76168;DHT22;64927;48.214;16.378;2024-03-23T09:33:08;20.80;38.00
76168;DHT22;64927;48.214;16.378;2024-03-23T09:35:37;21.10;37.80
76168;DHT22;64927;48.214;16.378;2024-03-23T09:38:05;21.40;37.50
76168;DHT22;64927;48.214;16.378;2024-03-23T09:40:33;21.50;36.60
76168;DHT22;64927;48.214;16.378;2024-03-23T09:42:58;21.80;34.50
76168;DHT22;64927;48.214;16.378;2024-03-23T09:45:28;21.80;34.30
76168;DHT22;64927;48.214;16.378;2024-03-23T09:47:55;22.00;34.90
76168;DHT22;64927;48.214;16.378;2024-03-23T09:50:21;22.30;33.50
76168;DHT22;64927;48.214;16.378;2024-03-23T09:52:47;22.10;33.40
76168;DHT22;64927;48.214;16.378;2024-03-23T09:55:13;22.20;34.10
76168;DHT22;64927;48.214;16.378;2024-03-23T09:57:41;22.20;34.00
76168;DHT22;64927;48.214;16.378;2024-03-23T10:00:08;22.20;34.50
76168;DHT22;64927;48.214;16.378;2024-03-23T10:02:35;22.10;34.70
76168;DHT22;64927;48.214;16.378;2024-03-23T10:05:03;22.10;34.60
76168;DHT22;64927;48.214;16.378;2024-03-23T10:07:29;22.00;34.70
76168;DHT22;64927;48.214;16.378;2024-03-23T10:10:10;22.00;35.00
76168;DHT22;64927;48.214;16.378;2024-03-23T10:12:44;22.30;34.40
76168;DHT22;64927;48.214;16.378;2024-03-23T10:15:18;22.50;34.30
76168;DHT22;64927;48.214;16.378;2024-03-23T10:17:44;22.70;33.90
76168;DHT22;64927;48.214;16.378;2024-03-23T10:20:10;22.80;33.20
76168;DHT22;64927;48.214;16.378;2024-03-23T10:22:37;22.90;32.50
76168;DHT22;64927;48.214;16.378;2024-03-23T10:25:10;22.90;32.20
76168;DHT22;64927;48.214;16.378;2024-03-23T10:27:36;23.00;32.20
76168;DHT22;64927;48.214;16.378;2024-03-23T10:30:13;23.10;31.50
76168;DHT22;64927;48.214;16.378;2024-03-23T10:32:40;23.10;31.10
76168;DHT22;64927;48.214;16.378;2024-03-23T10:35:16;23.00;32.10
76168;DHT22;64927;48.214;16.378;2024-03-23T10:37:44;23.00;31.80
76168;DHT22;64927;48.214;16.378;2024-03-23T10:40:12;23.10;31.60
76168;DHT22;64927;48.214;16.378;2024-03-23T10:42:41;23.10;31.10
76168;DHT22;64927;48.214;16.378;2024-03-23T10:45:07;23.00;31.10
76168;DHT22;64927;48.214;16.378;2024-03-23T10:47:37;23.00;31.80
76168;DHT22;64927;48.214;16.378;2024-03-23T10:50:06;23.00;31.80
76168;DHT22;64927;48.214;16.378;2024-03-23T10:52:34;23.20;32.00
76168;DHT22;64927;48.214;16.378;2024-03-23T10:55:06;23.40;31.50
76168;DHT22;64927;48.214;16.378;2024-03-23T10:57:55;23.50;31.30
76168;DHT22;64927;48.214;16.378;2024-03-23T11:00:24;23.40;32.00
76168;DHT22;64927;48.214;16.378;2024-03-23T11:02:50;23.50;30.30
76168;DHT22;64927;48.214;16.378;2024-03-23T11:07:51;23.80;29.90
76168;DHT22;64927;48.214;16.378;2024-03-23T11:10:30;23.90;28.90
76168;DHT22;64927;48.214;16.378;2024-03-23T11:13:22;23.70;28.90
76168;DHT22;64927;48.214;16.378;2024-03-23T11:15:53;23.80;29.40
76168;DHT22;64927;48.214;16.378;2024-03-23T11:18:24;23.80;28.60
76168;DHT22;64927;48.214;16.378;2024-03-23T11:20:49;23.90;29.00
76168;DHT22;64927;48.214;16.378;2024-03-23T11:23:28;23.90;28.80
76168;DHT22;64927;48.214;16.378;2024-03-23T11:25:54;23.90;28.40
76168;DHT22;64927;48.214;16.378;2024-03-23T11:28:22;23.80;28.60
76168;DHT22;64927;48.214;16.378;2024-03-23T11:30:47;23.80;29.00
76168;DHT22;64927;48.214;16.378;2024-03-23T11:33:13;24.00;28.90
76168;DHT22;64927;48.214;16.378;2024-03-23T11:35:40;24.20;29.10
76168;DHT22;64927;48.214;16.378;2024-03-23T11:40:38;24.00;29.00
76168;DHT22;64927;48.214;16.378;2024-03-23T11:43:06;23.90;29.20
76168;DHT22;64927;48.214;16.378;2024-03-23T11:45:39;23.80;29.40
76168;DHT22;64927;48.214;16.378;2024-03-23T11:48:10;23.70;29.60
76168;DHT22;64927;48.214;16.378;2024-03-23T11:50:56;23.70;29.40
76168;DHT22;64927;48.214;16.378;2024-03-23T11:53:25;23.70;29.40
76168;DHT22;64927;48.214;16.378;2024-03-23T11:55:54;23.80;29.30
76168;DHT22;64927;48.214;16.378;2024-03-23T11:58:21;23.80;29.20
76168;DHT22;64927;48.214;16.378;2024-03-23T12:00:58;23.80;29.40
76168;DHT22;64927;48.214;16.378;2024-03-23T12:03:24;23.90;29.10
76168;DHT22;64927;48.214;16.378;2024-03-23T12:05:58;23.50;29.50
76168;DHT22;64927;48.214;16.378;2024-03-23T12:08:32;23.50;29.90
76168;DHT22;64927;48.214;16.378;2024-03-23T12:11:08;23.40;29.90
76168;DHT22;64927;48.214;16.378;2024-03-23T12:13:40;23.30;30.00
76168;DHT22;64927;48.214;16.378;2024-03-23T12:18:36;23.10;30.50
76168;DHT22;64927;48.214;16.378;2024-03-23T12:21:04;23.00;30.60
76168;DHT22;64927;48.214;16.378;2024-03-23T12:23:29;22.90;30.80
76168;DHT22;64927;48.214;16.378;2024-03-23T12:25:55;22.90;30.80
76168;DHT22;64927;48.214;16.378;2024-03-23T12:28:21;22.90;30.30
76168;DHT22;64927;48.214;16.378;2024-03-23T12:30:46;22.90;30.70
76168;DHT22;64927;48.214;16.378;2024-03-23T12:33:12;22.80;31.00
76168;DHT22;64927;48.214;16.378;2024-03-23T12:35:37;22.80;30.80
76168;DHT22;64927;48.214;16.378;2024-03-23T12:38:06;22.70;30.40
76168;DHT22;64927;48.214;16.378;2024-03-23T12:40:32;22.70;30.10
76168;DHT22;64927;48.214;16.378;2024-03-23T12:42:58;22.70;30.20
76168;DHT22;64927;48.214;16.378;2024-03-23T12:45:23;22.60;30.80
76168;DHT22;64927;48.214;16.378;2024-03-23T12:47:49;22.50;30.90
76168;DHT22;64927;48.214;16.378;2024-03-23T12:50:17;22.50;30.80
76168;DHT22;64927;48.214;16.378;2024-03-23T12:52:43;22.40;30.70
76168;DHT22;64927;48.214;16.378;2024-03-23T12:55:10;22.30;31.10
76168;DHT22;64927;48.214;16.378;2024-03-23T12:57:36;22.20;31.60
76168;DHT22;64927;48.214;16.378;2024-03-23T13:00:02;22.00;33.80
76168;DHT22;64927;48.214;16.378;2024-03-23T13:02:29;21.60;36.20
76168;DHT22;64927;48.214;16.378;2024-03-23T13:04:57;21.20;38.50
76168;DHT22;64927;48.214;16.378;2024-03-23T13:07:23;20.70;40.00
76168;DHT22;64927;48.214;16.378;2024-03-23T13:09:54;20.50;41.10
76168;DHT22;64927;48.214;16.378;2024-03-23T13:12:22;20.10;42.30
76168;DHT22;64927;48.214;16.378;2024-03-23T13:14:48;19.40;44.70
76168;DHT22;64927;48.214;16.378;2024-03-23T13:17:16;19.20;44.60
76168;DHT22;64927;48.214;16.378;2024-03-23T13:19:42;19.10;44.80
76168;DHT22;64927;48.214;16.378;2024-03-23T13:22:08;18.80;46.10
76168;DHT22;64927;48.214;16.378;2024-03-23T13:24:37;18.40;47.50
76168;DHT22;64927;48.214;16.378;2024-03-23T13:27:03;18.20;48.10
76168;DHT22;64927;48.214;16.378;2024-03-23T13:29:30;18.00;48.40
76168;DHT22;64927;48.214;16.378;2024-03-23T13:31:56;17.90;49.40
76168;DHT22;64927;48.214;16.378;2024-03-23T13:34:22;17.60;50.80
76168;DHT22;64927;48.214;16.378;2024-03-23T13:36:47;17.40;52.70
76168;DHT22;64927;48.214;16.378;2024-03-23T13:39:15;16.90;53.00
76168;DHT22;64927;48.214;16.378;2024-03-23T13:41:43;16.70;54.00
76168;DHT22;64927;48.214;16.378;2024-03-23T13:44:12;16.60;54.30
76168;DHT22;64927;48.214;16.378;2024-03-23T13:46:43;16.50;53.60
76168;DHT22;64927;48.214;16.378;2024-03-23T13:49:27;16.30;55.10
76168;DHT22;64927;48.214;16.378;2024-03-23T13:51:57;16.20;56.10
76168;DHT22;64927;48.214;16.378;2024-03-23T13:54:24;16.10;55.80
76168;DHT22;64927;48.214;16.378;2024-03-23T13:56:50;15.80;56.80
76168;DHT22;64927;48.214;16.378;2024-03-23T13:59:16;15.60;57.10
76168;DHT22;64927;48.214;16.378;2024-03-23T14:01:44;15.20;59.40
76168;DHT22;64927;48.214;16.378;2024-03-23T14:04:13;14.90;60.60
76168;DHT22;64927;48.214;16.378;2024-03-23T14:06:39;14.80;61.60
76168;DHT22;64927;48.214;16.378;2024-03-23T14:09:05;14.70;62.50
76168;DHT22;64927;48.214;16.378;2024-03-23T14:11:35;14.50;62.70
76168;DHT22;64927;48.214;16.378;2024-03-23T14:14:01;14.30;62.90
76168;DHT22;64927;48.214;16.378;2024-03-23T14:16:27;14.30;61.50
76168;DHT22;64927;48.214;16.378;2024-03-23T14:18:53;14.30;61.20
76168;DHT22;64927;48.214;16.378;2024-03-23T14:21:21;14.20;61.60
76168;DHT22;64927;48.214;16.378;2024-03-23T14:23:49;14.00;61.40
76168;DHT22;64927;48.214;16.378;2024-03-23T14:26:15;13.90;62.20
76168;DHT22;64927;48.214;16.378;2024-03-23T14:28:40;13.80;62.30
76168;DHT22;64927;48.214;16.378;2024-03-23T14:31:06;13.70;64.00
76168;DHT22;64927;48.214;16.378;2024-03-23T14:33:36;13.60;63.00
76168;DHT22;64927;48.214;16.378;2024-03-23T14:36:03;13.40;62.80
76168;DHT22;64927;48.214;16.378;2024-03-23T14:38:29;13.10;63.50
76168;DHT22;64927;48.214;16.378;2024-03-23T14:41:00;13.00;63.60
76168;DHT22;64927;48.214;16.378;2024-03-23T14:43:27;12.90;64.90
76168;DHT22;64927;48.214;16.378;2024-03-23T14:46:19;12.90;65.00
76168;DHT22;64927;48.214;16.378;2024-03-23T14:48:46;12.70;65.50
76168;DHT22;64927;48.214;16.378;2024-03-23T14:51:12;12.60;65.70
76168;DHT22;64927;48.214;16.378;2024-03-23T14:53:40;12.50;66.00
76168;DHT22;64927;48.214;16.378;2024-03-23T14:56:09;12.50;66.10
76168;DHT22;64927;48.214;16.378;2024-03-23T14:58:38;12.50;65.20
76168;DHT22;64927;48.214;16.378;2024-03-23T15:01:05;12.60;66.30
76168;DHT22;64927;48.214;16.378;2024-03-23T15:03:34;12.50;66.40
76168;DHT22;64927;48.214;16.378;2024-03-23T15:06:00;12.60;65.20
76168;DHT22;64927;48.214;16.378;2024-03-23T15:08:27;12.50;66.00
76168;DHT22;64927;48.214;16.378;2024-03-23T15:10:53;12.30;65.50
76168;DHT22;64927;48.214;16.378;2024-03-23T15:13:19;12.30;65.50
76168;DHT22;64927;48.214;16.378;2024-03-23T15:15:45;12.10;64.90
76168;DHT22;64927;48.214;16.378;2024-03-23T15:18:11;11.90;64.70
76168;DHT22;64927;48.214;16.378;2024-03-23T15:20:38;11.90;65.70
76168;DHT22;64927;48.214;16.378;2024-03-23T15:23:04;11.80;67.20
76168;DHT22;64927;48.214;16.378;2024-03-23T15:25:32;11.80;66.70
76168;DHT22;64927;48.214;16.378;2024-03-23T15:27:58;11.80;66.70
76168;DHT22;64927;48.214;16.378;2024-03-23T15:30:26;11.60;68.00
76168;DHT22;64927;48.214;16.378;2024-03-23T15:32:54;11.50;67.80
76168;DHT22;64927;48.214;16.378;2024-03-23T15:35:19;11.50;68.30
76168;DHT22;64927;48.214;16.378;2024-03-23T15:37:48;11.50;69.10
76168;DHT22;64927;48.214;16.378;2024-03-23T15:40:13;11.30;69.50
76168;DHT22;64927;48.214;16.378;2024-03-23T15:42:39;11.30;70.10
76168;DHT22;64927;48.214;16.378;2024-03-23T15:45:08;11.30;71.30
76168;DHT22;64927;48.214;16.378;2024-03-23T15:47:35;11.20;71.10
76168;DHT22;64927;48.214;16.378;2024-03-23T15:50:01;11.10;70.40
76168;DHT22;64927;48.214;16.378;2024-03-23T15:52:34;11.10;69.90
76168;DHT22;64927;48.214;16.378;2024-03-23T15:55:01;11.10;67.90
76168;DHT22;64927;48.214;16.378;2024-03-23T15:57:27;11.10;68.10
76168;DHT22;64927;48.214;16.378;2024-03-23T15:59:53;11.10;67.30
76168;DHT22;64927;48.214;16.378;2024-03-23T16:02:19;11.20;68.00
76168;DHT22;64927;48.214;16.378;2024-03-23T16:04:44;11.30;66.40
76168;DHT22;64927;48.214;16.378;2024-03-23T16:07:11;11.30;63.90
76168;DHT22;64927;48.214;16.378;2024-03-23T16:09:39;11.40;62.50
76168;DHT22;64927;48.214;16.378;2024-03-23T16:12:05;11.40;62.20
76168;DHT22;64927;48.214;16.378;2024-03-23T16:14:31;11.40;63.00
76168;DHT22;64927;48.214;16.378;2024-03-23T16:16:56;11.40;61.00
76168;DHT22;64927;48.214;16.378;2024-03-23T16:19:22;11.50;61.00